sensor_id;sensor_type;location;lat;lon;timestamp;pressure;altitude;pressure_sealevel;temperature;humidity
3122;BME280;1571;52.524;14.104;2023-03-01T00:01:24;102594.13;;;-3.82;94.92
3122;BME280;1571;52.524;14.104;2023-03-01T00:03:53;102592.16;;;-3.90;94.80
3122;BME280;1571;52.524;14.104;2023-03-01T00:06:23;102595.13;;;-4.08;94.64
3122;BME280;1571;52.524;14.104;2023-03-01T00:08:51;102597.03;;;-4.03;94.72
3122;BME280;1571;52.524;14.104;2023-03-01T00:11:22;102593.09;;;-3.88;94.77
3122;BME280;1571;52.524;14.104;2023-03-01T00:13:52;102589.56;;;-3.90;94.63
3122;BME280;1571;52.524;14.104;2023-03-01T00:16:23;102589.56;;;-3.90;94.62
3122;BME280;1571;52.524;14.104;2023-03-01T00:18:51;102585.00;;;-4.01;94.74
3122;BME280;1571;52.524;14.104;2023-03-01T00:21:21;102589.63;;;-4.21;95.10
3122;BME280;1571;52.524;14.104;2023-03-01T00:23:50;102591.41;;;-4.18;95.13
3122;BME280;1571;52.524;14.104;2023-03-01T00:26:21;102587.28;;;-4.11;95.54
3122;BME280;1571;52.524;14.104;2023-03-01T00:28:50;102588.34;;;-4.03;95.58
3122;BME280;1571;52.524;14.104;2023-03-01T00:31:20;102580.44;;;-4.09;95.44
3122;BME280;1571;52.524;14.104;2023-03-01T00:33:52;102576.84;;;-4.13;95.45
3122;BME280;1571;52.524;14.104;2023-03-01T00:36:25;102585.44;;;-4.15;95.49
3122;BME280;1571;52.524;14.104;2023-03-01T00:38:53;102580.19;;;-4.17;95.63
3122;BME280;1571;52.524;14.104;2023-03-01T00:41:24;102588.44;;;-4.32;95.51
3122;BME280;1571;52.524;14.104;2023-03-01T00:43:53;102585.53;;;-4.43;95.87
3122;BME280;1571;52.524;14.104;2023-03-01T00:46:23;102586.66;;;-4.33;96.15
3122;BME280;1571;52.524;14.104;2023-03-01T00:48:52;102590.53;;;-4.19;96.12
3122;BME280;1571;52.524;14.104;2023-03-01T00:51:22;102577.16;;;-4.32;95.73
3122;BME280;1571;52.524;14.104;2023-03-01T00:53:52;102577.09;;;-4.35;95.95
3122;BME280;1571;52.524;14.104;2023-03-01T00:56:20;102569.25;;;-4.38;95.97
3122;BME280;1571;52.524;14.104;2023-03-01T00:58:50;102566.78;;;-4.32;96.10
3122;BME280;1571;52.524;14.104;2023-03-01T01:01:20;102556.28;;;-4.38;96.37
3122;BME280;1571;52.524;14.104;2023-03-01T01:03:50;102562.00;;;-4.49;96.53
3122;BME280;1571;52.524;14.104;2023-03-01T01:06:21;102572.59;;;-4.71;97.18
3122;BME280;1571;52.524;14.104;2023-03-01T01:08:51;102567.88;;;-4.56;97.51
3122;BME280;1571;52.524;14.104;2023-03-01T01:11:20;102564.59;;;-4.49;97.74
3122;BME280;1571;52.524;14.104;2023-03-01T01:13:50;102556.41;;;-4.32;97.28
3122;BME280;1571;52.524;14.104;2023-03-01T01:16:21;102550.47;;;-4.60;97.18
3122;BME280;1571;52.524;14.104;2023-03-01T01:18:50;102543.97;;;-4.46;97.29
3122;BME280;1571;52.524;14.104;2023-03-01T01:21:20;102545.72;;;-4.45;97.10
3122;BME280;1571;52.524;14.104;2023-03-01T01:23:50;102545.72;;;-4.45;97.00
3122;BME280;1571;52.524;14.104;2023-03-01T01:26:21;102543.78;;;-4.52;97.01
3122;BME280;1571;52.524;14.104;2023-03-01T01:28:51;102541.03;;;-4.58;96.80
3122;BME280;1571;52.524;14.104;2023-03-01T01:31:20;102542.88;;;-4.54;96.98
3122;BME280;1571;52.524;14.104;2023-03-01T01:33:51;102547.19;;;-4.54;97.09
3122;BME280;1571;52.524;14.104;2023-03-01T01:36:19;102541.75;;;-4.62;97.19
3122;BME280;1571;52.524;14.104;2023-03-01T01:38:48;102548.47;;;-4.70;97.12
3122;BME280;1571;52.524;14.104;2023-03-01T01:41:17;102548.53;;;-4.67;97.28
3122;BME280;1571;52.524;14.104;2023-03-01T01:43:48;102544.81;;;-4.75;97.75
3122;BME280;1571;52.524;14.104;2023-03-01T01:46:25;102538.34;;;-4.61;97.69
3122;BME280;1571;52.524;14.104;2023-03-01T01:48:59;102543.59;;;-4.58;97.81
3122;BME280;1571;52.524;14.104;2023-03-01T01:51:31;102541.81;;;-4.61;98.05
3122;BME280;1571;52.524;14.104;2023-03-01T01:54:09;102542.63;;;-4.62;97.81
3122;BME280;1571;52.524;14.104;2023-03-01T01:56:40;102548.47;;;-4.70;97.70
3122;BME280;1571;52.524;14.104;2023-03-01T01:59:11;102549.09;;;-4.77;97.80
3122;BME280;1571;52.524;14.104;2023-03-01T02:01:41;102547.41;;;-4.77;97.83
3122;BME280;1571;52.524;14.104;2023-03-01T02:04:10;102542.06;;;-4.82;98.20
3122;BME280;1571;52.524;14.104;2023-03-01T02:06:41;102544.34;;;-4.64;98.12
3122;BME280;1571;52.524;14.104;2023-03-01T02:09:14;102541.69;;;-4.65;98.17
3122;BME280;1571;52.524;14.104;2023-03-01T02:11:44;102554.38;;;-4.74;98.07
3122;BME280;1571;52.524;14.104;2023-03-01T02:14:14;102546.88;;;-4.94;98.11
3122;BME280;1571;52.524;14.104;2023-03-01T02:16:45;102552.25;;;-4.88;98.22
3122;BME280;1571;52.524;14.104;2023-03-01T02:19:24;102549.00;;;-4.81;98.64
3122;BME280;1571;52.524;14.104;2023-03-01T02:22:03;102544.34;;;-4.92;98.33
3122;BME280;1571;52.524;14.104;2023-03-01T02:24:42;102548.53;;;-4.96;98.58
3122;BME280;1571;52.524;14.104;2023-03-01T02:27:20;102544.41;;;-4.91;98.79
3122;BME280;1571;52.524;14.104;2023-03-01T02:29:52;102537.84;;;-5.07;99.26
3122;BME280;1571;52.524;14.104;2023-03-01T02:32:23;102523.47;;;-4.97;99.29
3122;BME280;1571;52.524;14.104;2023-03-01T02:34:53;102537.16;;;-5.01;99.13
3122;BME280;1571;52.524;14.104;2023-03-01T02:37:24;102525.34;;;-4.93;98.91
3122;BME280;1571;52.524;14.104;2023-03-01T02:39:57;102537.44;;;-4.92;98.73
3122;BME280;1571;52.524;14.104;2023-03-01T02:42:30;102532.63;;;-5.08;98.79
3122;BME280;1571;52.524;14.104;2023-03-01T02:45:01;102535.06;;;-4.84;98.72
3122;BME280;1571;52.524;14.104;2023-03-01T02:47:29;102518.75;;;-5.10;99.15
3122;BME280;1571;52.524;14.104;2023-03-01T02:49:57;102515.31;;;-4.81;98.98
3122;BME280;1571;52.524;14.104;2023-03-01T02:52:36;102516.91;;;-4.86;98.69
3122;BME280;1571;52.524;14.104;2023-03-01T02:55:11;102524.28;;;-4.98;98.36
3122;BME280;1571;52.524;14.104;2023-03-01T02:57:43;102518.03;;;-5.06;98.45
3122;BME280;1571;52.524;14.104;2023-03-01T03:00:16;102512.19;;;-4.99;98.45
3122;BME280;1571;52.524;14.104;2023-03-01T03:02:48;102514.00;;;-5.52;98.30
3122;BME280;1571;52.524;14.104;2023-03-01T03:05:20;102514.22;;;-5.17;98.85
3122;BME280;1571;52.524;14.104;2023-03-01T03:07:53;102515.97;;;-5.16;98.98
3122;BME280;1571;52.524;14.104;2023-03-01T03:10:23;102507.97;;;-4.95;99.08
3122;BME280;1571;52.524;14.104;2023-03-01T03:12:54;102509.69;;;-4.96;98.75
3122;BME280;1571;52.524;14.104;2023-03-01T03:15:25;102503.28;;;-5.09;98.98
3122;BME280;1571;52.524;14.104;2023-03-01T03:17:55;102506.28;;;-4.95;98.60
3122;BME280;1571;52.524;14.104;2023-03-01T03:20:26;102499.28;;;-4.97;98.62
3122;BME280;1571;52.524;14.104;2023-03-01T03:22:57;102498.25;;;-5.03;98.32
3122;BME280;1571;52.524;14.104;2023-03-01T03:25:27;102501.75;;;-5.02;98.24
3122;BME280;1571;52.524;14.104;2023-03-01T03:27:57;102485.69;;;-5.19;98.37
3122;BME280;1571;52.524;14.104;2023-03-01T03:30:28;102500.34;;;-5.19;98.09
3122;BME280;1571;52.524;14.104;2023-03-01T03:32:58;102500.34;;;-5.19;97.86
3122;BME280;1571;52.524;14.104;2023-03-01T03:35:28;102493.47;;;-5.19;98.01
3122;BME280;1571;52.524;14.104;2023-03-01T03:37:59;102481.38;;;-5.18;98.37
3122;BME280;1571;52.524;14.104;2023-03-01T03:40:32;102480.59;;;-5.16;98.70
3122;BME280;1571;52.524;14.104;2023-03-01T03:43:01;102477.13;;;-5.16;98.62
3122;BME280;1571;52.524;14.104;2023-03-01T03:45:31;102476.84;;;-5.26;98.60
3122;BME280;1571;52.524;14.104;2023-03-01T03:48:01;102473.19;;;-5.32;98.57
3122;BME280;1571;52.524;14.104;2023-03-01T03:50:29;102470.94;;;-5.21;98.43
3122;BME280;1571;52.524;14.104;2023-03-01T03:53:00;102466.56;;;-5.24;98.17
3122;BME280;1571;52.524;14.104;2023-03-01T03:55:28;102469.16;;;-5.23;98.36
3122;BME280;1571;52.524;14.104;2023-03-01T03:57:58;102468.22;;;-5.26;98.25
3122;BME280;1571;52.524;14.104;2023-03-01T04:00:30;102474.47;;;-5.19;98.37
3122;BME280;1571;52.524;14.104;2023-03-01T04:02:58;102472.53;;;-5.27;98.06
3122;BME280;1571;52.524;14.104;2023-03-01T04:05:28;102467.88;;;-5.37;98.15
3122;BME280;1571;52.524;14.104;2023-03-01T04:07:56;102464.56;;;-5.33;98.12
3122;BME280;1571;52.524;14.104;2023-03-01T04:10:37;102460.38;;;-5.28;98.20
3122;BME280;1571;52.524;14.104;2023-03-01T04:13:06;102461.25;;;-5.27;98.29
3122;BME280;1571;52.524;14.104;2023-03-01T04:15:36;102461.13;;;-5.32;98.11
3122;BME280;1571;52.524;14.104;2023-03-01T04:18:05;102462.50;;;-5.43;97.76
3122;BME280;1571;52.524;14.104;2023-03-01T04:20:35;102456.69;;;-5.65;97.79
3122;BME280;1571;52.524;14.104;2023-03-01T04:23:05;102456.13;;;-5.54;98.07
3122;BME280;1571;52.524;14.104;2023-03-01T04:25:42;102458.84;;;-5.50;98.63
3122;BME280;1571;52.524;14.104;2023-03-01T04:28:11;102457.53;;;-5.37;98.50
3122;BME280;1571;52.524;14.104;2023-03-01T04:30:40;102442.53;;;-5.47;98.60
3122;BME280;1571;52.524;14.104;2023-03-01T04:33:10;102451.88;;;-5.52;98.53
3122;BME280;1571;52.524;14.104;2023-03-01T04:35:38;102451.38;;;-5.96;98.52
3122;BME280;1571;52.524;14.104;2023-03-01T04:38:07;102451.78;;;-5.55;98.79
3122;BME280;1571;52.524;14.104;2023-03-01T04:40:36;102458.78;;;-5.80;99.11
3122;BME280;1571;52.524;14.104;2023-03-01T04:43:05;102457.69;;;-5.59;99.09
3122;BME280;1571;52.524;14.104;2023-03-01T04:45:33;102452.81;;;-5.50;98.43
3122;BME280;1571;52.524;14.104;2023-03-01T04:48:04;102459.69;;;-5.51;98.35
3122;BME280;1571;52.524;14.104;2023-03-01T04:50:32;102457.03;;;-5.54;98.43
3122;BME280;1571;52.524;14.104;2023-03-01T04:53:01;102457.97;;;-5.50;98.40
3122;BME280;1571;52.524;14.104;2023-03-01T04:55:29;102456.03;;;-5.57;98.19
3122;BME280;1571;52.524;14.104;2023-03-01T04:57:58;102461.41;;;-5.51;98.26
3122;BME280;1571;52.524;14.104;2023-03-01T05:00:27;102461.28;;;-5.54;98.24
3122;BME280;1571;52.524;14.104;2023-03-01T05:02:57;102463.75;;;-5.59;97.98
3122;BME280;1571;52.524;14.104;2023-03-01T05:05:29;102459.06;;;-5.71;97.91
3122;BME280;1571;52.524;14.104;2023-03-01T05:08:00;102456.75;;;-5.61;97.94
3122;BME280;1571;52.524;14.104;2023-03-01T05:10:31;102452.22;;;-5.69;97.91
3122;BME280;1571;52.524;14.104;2023-03-01T05:12:59;102441.88;;;-5.69;98.05
3122;BME280;1571;52.524;14.104;2023-03-01T05:15:30;102441.28;;;-5.60;98.29
3122;BME280;1571;52.524;14.104;2023-03-01T05:17:59;102440.44;;;-5.60;98.19
3122;BME280;1571;52.524;14.104;2023-03-01T05:20:29;102442.66;;;-5.71;98.15
3122;BME280;1571;52.524;14.104;2023-03-01T05:22:59;102446.97;;;-5.72;98.02
3122;BME280;1571;52.524;14.104;2023-03-01T05:25:33;102442.88;;;-5.65;98.04
3122;BME280;1571;52.524;14.104;2023-03-01T05:28:10;102439.56;;;-5.59;98.11
3122;BME280;1571;52.524;14.104;2023-03-01T05:30:41;102445.41;;;-5.67;98.09
3122;BME280;1571;52.524;14.104;2023-03-01T05:33:10;102442.94;;;-5.62;98.25
3122;BME280;1571;52.524;14.104;2023-03-01T05:35:43;102436.94;;;-5.61;98.26
3122;BME280;1571;52.524;14.104;2023-03-01T05:38:12;102432.81;;;-5.56;98.35
3122;BME280;1571;52.524;14.104;2023-03-01T05:40:42;102433.66;;;-5.55;98.09
3122;BME280;1571;52.524;14.104;2023-03-01T05:43:11;102426.84;;;-5.80;98.11
3122;BME280;1571;52.524;14.104;2023-03-01T05:45:41;102436.78;;;-5.66;98.23
3122;BME280;1571;52.524;14.104;2023-03-01T05:48:10;102443.25;;;-5.80;98.32
3122;BME280;1571;52.524;14.104;2023-03-01T05:50:40;102440.44;;;-5.60;98.41
3122;BME280;1571;52.524;14.104;2023-03-01T05:53:13;102452.09;;;-5.73;98.47
3122;BME280;1571;52.524;14.104;2023-03-01T05:55:42;102439.44;;;-5.64;98.57
3122;BME280;1571;52.524;14.104;2023-03-01T05:58:13;102441.97;;;-5.66;98.35
3122;BME280;1571;52.524;14.104;2023-03-01T06:00:43;102444.66;;;-5.62;98.21
3122;BME280;1571;52.524;14.104;2023-03-01T06:03:13;102446.66;;;-5.54;98.46
3122;BME280;1571;52.524;14.104;2023-03-01T06:05:42;102449.41;;;-5.48;98.28
3122;BME280;1571;52.524;14.104;2023-03-01T06:08:13;102450.13;;;-5.53;98.25
3122;BME280;1571;52.524;14.104;2023-03-01T06:10:41;102443.81;;;-5.61;98.17
3122;BME280;1571;52.524;14.104;2023-03-01T06:13:09;102446.94;;;-5.45;98.35
3122;BME280;1571;52.524;14.104;2023-03-01T06:15:37;102453.13;;;-5.39;98.34
3122;BME280;1571;52.524;14.104;2023-03-01T06:18:05;102454.34;;;-5.28;98.27
3122;BME280;1571;52.524;14.104;2023-03-01T06:20:33;102455.03;;;-5.34;98.13
3122;BME280;1571;52.524;14.104;2023-03-01T06:23:02;102452.81;;;-5.21;98.23
3122;BME280;1571;52.524;14.104;2023-03-01T06:25:32;102459.00;;;-5.16;98.07
3122;BME280;1571;52.524;14.104;2023-03-01T06:28:00;102460.50;;;-5.25;98.38
3122;BME280;1571;52.524;14.104;2023-03-01T06:30:28;102460.94;;;-5.09;98.18
3122;BME280;1571;52.524;14.104;2023-03-01T06:32:57;102459.47;;;-5.01;98.05
3122;BME280;1571;52.524;14.104;2023-03-01T06:35:28;102459.91;;;-4.86;97.61
3122;BME280;1571;52.524;14.104;2023-03-01T06:37:59;102460.22;;;-4.75;97.35
3122;BME280;1571;52.524;14.104;2023-03-01T06:40:28;102467.06;;;-4.77;97.31
3122;BME280;1571;52.524;14.104;2023-03-01T06:42:59;102455.16;;;-4.70;97.41
3122;BME280;1571;52.524;14.104;2023-03-01T06:45:27;102460.72;;;-4.55;97.58
3122;BME280;1571;52.524;14.104;2023-03-01T06:48:03;102457.25;;;-4.57;97.55
3122;BME280;1571;52.524;14.104;2023-03-01T06:50:32;102469.53;;;-4.50;97.60
3122;BME280;1571;52.524;14.104;2023-03-01T06:53:02;102462.03;;;-4.39;97.71
3122;BME280;1571;52.524;14.104;2023-03-01T06:55:31;102459.72;;;-4.28;97.57
3122;BME280;1571;52.524;14.104;2023-03-01T06:58:01;102463.94;;;-3.99;97.71
3122;BME280;1571;52.524;14.104;2023-03-01T07:00:30;102460.81;;;-3.85;97.51
3122;BME280;1571;52.524;14.104;2023-03-01T07:03:00;102461.34;;;-3.64;97.15
3122;BME280;1571;52.524;14.104;2023-03-01T07:05:30;102449.53;;;-3.51;96.96
3122;BME280;1571;52.524;14.104;2023-03-01T07:07:58;102460.59;;;-3.58;97.02
3122;BME280;1571;52.524;14.104;2023-03-01T07:10:26;102460.38;;;-3.31;96.87
3122;BME280;1571;52.524;14.104;2023-03-01T07:12:55;102452.94;;;-3.14;96.78
3122;BME280;1571;52.524;14.104;2023-03-01T07:15:26;102462.78;;;-2.99;96.47
3122;BME280;1571;52.524;14.104;2023-03-01T07:17:56;102454.44;;;-2.83;96.37
3122;BME280;1571;52.524;14.104;2023-03-01T07:20:24;102454.75;;;-2.67;96.42
3122;BME280;1571;52.524;14.104;2023-03-01T07:22:53;102464.66;;;-2.92;96.72
3122;BME280;1571;52.524;14.104;2023-03-01T07:25:22;102456.56;;;-2.63;96.72
3122;BME280;1571;52.524;14.104;2023-03-01T07:27:50;102459.56;;;-2.42;96.67
3122;BME280;1571;52.524;14.104;2023-03-01T07:30:19;102462.66;;;-2.14;96.42
3122;BME280;1571;52.524;14.104;2023-03-01T07:32:49;102448.28;;;-1.92;95.74
3122;BME280;1571;52.524;14.104;2023-03-01T07:35:19;102456.47;;;-1.69;95.22
3122;BME280;1571;52.524;14.104;2023-03-01T07:37:47;102452.16;;;-1.67;94.58
3122;BME280;1571;52.524;14.104;2023-03-01T07:40:15;102441.03;;;-1.57;94.24
3122;BME280;1571;52.524;14.104;2023-03-01T07:42:44;102452.38;;;-1.53;93.98
3122;BME280;1571;52.524;14.104;2023-03-01T07:45:12;102443.81;;;-1.44;93.97
3122;BME280;1571;52.524;14.104;2023-03-01T07:47:41;102441.94;;;-0.89;93.35
3122;BME280;1571;52.524;14.104;2023-03-01T07:50:10;102436.94;;;-0.71;92.39
3122;BME280;1571;52.524;14.104;2023-03-01T07:52:40;102440.00;;;-0.29;91.54
3122;BME280;1571;52.524;14.104;2023-03-01T07:55:09;102434.09;;;-0.08;90.43
3122;BME280;1571;52.524;14.104;2023-03-01T07:57:37;102440.28;;;0.03;89.65
3122;BME280;1571;52.524;14.104;2023-03-01T08:00:07;102432.50;;;0.09;89.02
3122;BME280;1571;52.524;14.104;2023-03-01T08:02:38;102423.97;;;0.35;88.36
3122;BME280;1571;52.524;14.104;2023-03-01T08:05:08;102423.19;;;0.48;87.77
3122;BME280;1571;52.524;14.104;2023-03-01T08:07:38;102419.84;;;0.68;87.18
3122;BME280;1571;52.524;14.104;2023-03-01T08:10:07;102417.31;;;0.89;86.78
3122;BME280;1571;52.524;14.104;2023-03-01T08:12:35;102423.50;;;1.10;86.43
3122;BME280;1571;52.524;14.104;2023-03-01T08:15:04;102421.78;;;1.16;86.22
3122;BME280;1571;52.524;14.104;2023-03-01T08:17:32;102421.84;;;1.36;86.09
3122;BME280;1571;52.524;14.104;2023-03-01T08:20:01;102413.97;;;1.32;85.41
3122;BME280;1571;52.524;14.104;2023-03-01T08:22:30;102414.84;;;1.37;85.20
3122;BME280;1571;52.524;14.104;2023-03-01T08:24:59;102410.53;;;1.62;84.41
3122;BME280;1571;52.524;14.104;2023-03-01T08:27:27;102404.47;;;1.92;83.76
3122;BME280;1571;52.524;14.104;2023-03-01T08:29:56;102407.09;;;1.97;82.88
3122;BME280;1571;52.524;14.104;2023-03-01T08:32:24;102395.72;;;2.24;82.13
3122;BME280;1571;52.524;14.104;2023-03-01T08:34:52;102400.09;;;2.22;81.02
3122;BME280;1571;52.524;14.104;2023-03-01T08:37:20;102395.69;;;2.44;80.37
3122;BME280;1571;52.524;14.104;2023-03-01T08:39:49;102387.78;;;2.56;78.38
3122;BME280;1571;52.524;14.104;2023-03-01T08:42:18;102391.19;;;2.78;78.03
3122;BME280;1571;52.524;14.104;2023-03-01T08:44:46;102387.72;;;2.70;75.94
3122;BME280;1571;52.524;14.104;2023-03-01T08:47:15;102392.91;;;2.93;75.66
3122;BME280;1571;52.524;14.104;2023-03-01T08:49:43;102388.56;;;2.90;74.44
3122;BME280;1571;52.524;14.104;2023-03-01T08:52:11;102386.84;;;2.77;73.44
3122;BME280;1571;52.524;14.104;2023-03-01T08:54:39;102392.91;;;2.90;73.34
3122;BME280;1571;52.524;14.104;2023-03-01T08:57:07;102373.50;;;3.22;70.10
3122;BME280;1571;52.524;14.104;2023-03-01T08:59:37;102366.41;;;3.38;67.89
3122;BME280;1571;52.524;14.104;2023-03-01T09:02:11;102354.09;;;3.47;66.29
3122;BME280;1571;52.524;14.104;2023-03-01T09:04:40;102353.56;;;2.91;65.49
3122;BME280;1571;52.524;14.104;2023-03-01T09:07:09;102354.31;;;3.13;66.53
3122;BME280;1571;52.524;14.104;2023-03-01T09:09:37;102354.22;;;3.29;65.53
3122;BME280;1571;52.524;14.104;2023-03-01T09:12:05;102356.19;;;2.93;65.36
3122;BME280;1571;52.524;14.104;2023-03-01T09:14:34;102362.09;;;3.26;65.67
3122;BME280;1571;52.524;14.104;2023-03-01T09:17:05;102369.94;;;3.32;65.16
3122;BME280;1571;52.524;14.104;2023-03-01T09:19:34;102357.59;;;3.49;63.68
3122;BME280;1571;52.524;14.104;2023-03-01T09:22:03;102358.34;;;3.64;62.71
3122;BME280;1571;52.524;14.104;2023-03-01T09:24:31;102357.31;;;3.82;62.32
3122;BME280;1571;52.524;14.104;2023-03-01T09:26:59;102369.59;;;3.81;63.47
3122;BME280;1571;52.524;14.104;2023-03-01T09:29:28;102369.25;;;4.18;62.50
3122;BME280;1571;52.524;14.104;2023-03-01T09:31:56;102366.84;;;3.95;62.17
3122;BME280;1571;52.524;14.104;2023-03-01T09:34:26;102363.41;;;3.87;61.85
3122;BME280;1571;52.524;14.104;2023-03-01T09:36:54;102371.06;;;4.13;61.96
3122;BME280;1571;52.524;14.104;2023-03-01T09:39:22;102373.66;;;4.17;61.50
3122;BME280;1571;52.524;14.104;2023-03-01T09:41:57;102371.44;;;3.67;62.42
3122;BME280;1571;52.524;14.104;2023-03-01T09:44:37;102376.53;;;3.88;61.88
3122;BME280;1571;52.524;14.104;2023-03-01T09:47:14;102379.34;;;3.65;62.77
3122;BME280;1571;52.524;14.104;2023-03-01T09:49:48;102380.72;;;4.11;62.90
3122;BME280;1571;52.524;14.104;2023-03-01T09:52:26;102382.03;;;4.55;62.78
3122;BME280;1571;52.524;14.104;2023-03-01T09:54:56;102370.00;;;4.29;60.46
3122;BME280;1571;52.524;14.104;2023-03-01T09:57:32;102377.53;;;4.63;60.61
3122;BME280;1571;52.524;14.104;2023-03-01T10:00:18;102376.28;;;4.19;61.07
3122;BME280;1571;52.524;14.104;2023-03-01T10:02:50;102372.34;;;4.57;61.76
3122;BME280;1571;52.524;14.104;2023-03-01T10:05:34;102364.28;;;4.72;59.89
3122;BME280;1571;52.524;14.104;2023-03-01T10:10:58;102356.00;;;5.03;59.16
3122;BME280;1571;52.524;14.104;2023-03-01T10:13:32;102358.03;;;4.79;58.75
3122;BME280;1571;52.524;14.104;2023-03-01T10:16:05;102363.28;;;4.83;59.25
3122;BME280;1571;52.524;14.104;2023-03-01T10:18:37;102354.78;;;4.59;59.83
3122;BME280;1571;52.524;14.104;2023-03-01T10:21:14;102373.81;;;4.79;60.25
3122;BME280;1571;52.524;14.104;2023-03-01T10:23:43;102371.47;;;4.58;59.89
3122;BME280;1571;52.524;14.104;2023-03-01T10:26:24;102377.00;;;4.32;58.67
3122;BME280;1571;52.524;14.104;2023-03-01T10:29:01;102374.91;;;4.63;58.88
3122;BME280;1571;52.524;14.104;2023-03-01T10:31:37;102379.94;;;4.85;59.44
3122;BME280;1571;52.524;14.104;2023-03-01T10:34:15;102372.84;;;4.88;58.31
3122;BME280;1571;52.524;14.104;2023-03-01T10:36:48;102362.25;;;4.94;58.69
3122;BME280;1571;52.524;14.104;2023-03-01T10:39:20;102358.44;;;5.15;58.22
3122;BME280;1571;52.524;14.104;2023-03-01T10:41:55;102360.63;;;4.84;58.33
3122;BME280;1571;52.524;14.104;2023-03-01T10:44:38;102346.44;;;4.96;58.18
3122;BME280;1571;52.524;14.104;2023-03-01T10:47:19;102346.38;;;5.00;57.45
3122;BME280;1571;52.524;14.104;2023-03-01T10:50:00;102355.78;;;5.18;57.99
3122;BME280;1571;52.524;14.104;2023-03-01T10:52:33;102341.25;;;5.50;57.51
3122;BME280;1571;52.524;14.104;2023-03-01T10:55:04;102345.59;;;5.54;58.04
3122;BME280;1571;52.524;14.104;2023-03-01T10:57:46;102339.09;;;5.74;57.66
3122;BME280;1571;52.524;14.104;2023-03-01T11:00:22;102332.72;;;5.87;57.01
3122;BME280;1571;52.524;14.104;2023-03-01T11:03:04;102319.16;;;6.12;55.57
3122;BME280;1571;52.524;14.104;2023-03-01T11:05:54;102308.44;;;6.21;53.88
3122;BME280;1571;52.524;14.104;2023-03-01T11:08:36;102304.00;;;6.23;52.72
3122;BME280;1571;52.524;14.104;2023-03-01T11:13:52;102303.13;;;5.74;52.76
3122;BME280;1571;52.524;14.104;2023-03-01T11:16:27;102297.84;;;5.74;52.23
3122;BME280;1571;52.524;14.104;2023-03-01T11:18:58;102316.50;;;5.60;52.16
3122;BME280;1571;52.524;14.104;2023-03-01T11:21:28;102311.28;;;5.57;53.93
3122;BME280;1571;52.524;14.104;2023-03-01T11:24:01;102321.50;;;5.76;54.10
3122;BME280;1571;52.524;14.104;2023-03-01T11:26:34;102316.50;;;5.60;53.21
3122;BME280;1571;52.524;14.104;2023-03-01T11:29:13;102308.81;;;5.47;53.61
3122;BME280;1571;52.524;14.104;2023-03-01T11:31:45;102316.63;;;5.54;54.05
3122;BME280;1571;52.524;14.104;2023-03-01T11:34:32;102312.22;;;5.53;54.71
3122;BME280;1571;52.524;14.104;2023-03-01T11:37:12;102318.09;;;5.71;55.32
3122;BME280;1571;52.524;14.104;2023-03-01T11:39:51;102318.59;;;5.40;54.92
3122;BME280;1571;52.524;14.104;2023-03-01T11:42:27;102311.09;;;5.70;54.69
3122;BME280;1571;52.524;14.104;2023-03-01T11:44:59;102296.41;;;5.53;54.49
3122;BME280;1571;52.524;14.104;2023-03-01T11:47:41;102298.72;;;5.75;53.41
3122;BME280;1571;52.524;14.104;2023-03-01T11:50:20;102291.56;;;5.80;53.56
3122;BME280;1571;52.524;14.104;2023-03-01T11:53:03;102297.88;;;5.71;53.64
3122;BME280;1571;52.524;14.104;2023-03-01T11:55:50;102303.41;;;5.56;54.10
3122;BME280;1571;52.524;14.104;2023-03-01T11:58:36;102295.34;;;5.65;54.05
3122;BME280;1571;52.524;14.104;2023-03-01T12:01:18;102296.22;;;5.66;54.35
3122;BME280;1571;52.524;14.104;2023-03-01T12:04:09;102286.06;;;5.95;53.24
3122;BME280;1571;52.524;14.104;2023-03-01T12:06:50;102278.91;;;6.03;52.10
3122;BME280;1571;52.524;14.104;2023-03-01T12:09:36;102278.75;;;6.10;51.72
3122;BME280;1571;52.524;14.104;2023-03-01T12:12:24;102267.72;;;6.34;52.00
3122;BME280;1571;52.524;14.104;2023-03-01T12:15:05;102267.84;;;6.28;51.36
3122;BME280;1571;52.524;14.104;2023-03-01T12:17:57;102252.81;;;6.33;49.90
3122;BME280;1571;52.524;14.104;2023-03-01T12:20:35;102256.16;;;5.96;50.78
3122;BME280;1571;52.524;14.104;2023-03-01T12:23:20;102259.00;;;5.86;51.05
3122;BME280;1571;52.524;14.104;2023-03-01T12:25:58;102263.50;;;6.25;51.47
3122;BME280;1571;52.524;14.104;2023-03-01T12:28:54;102259.19;;;5.75;50.86
3122;BME280;1571;52.524;14.104;2023-03-01T12:31:47;102249.06;;;5.52;50.70
3122;BME280;1571;52.524;14.104;2023-03-01T12:34:32;102248.53;;;5.79;50.92
3122;BME280;1571;52.524;14.104;2023-03-01T12:37:13;102247.69;;;6.25;50.88
3122;BME280;1571;52.524;14.104;2023-03-01T12:39:52;102240.13;;;6.09;50.52
3122;BME280;1571;52.524;14.104;2023-03-01T12:42:31;102245.53;;;6.44;50.86
3122;BME280;1571;52.524;14.104;2023-03-01T12:45:34;102227.31;;;6.32;48.55
3122;BME280;1571;52.524;14.104;2023-03-01T12:48:22;102220.44;;;6.25;48.06
3122;BME280;1571;52.524;14.104;2023-03-01T12:50:53;102204.03;;;6.11;47.76
3122;BME280;1571;52.524;14.104;2023-03-01T12:53:24;102219.56;;;6.24;48.89
3122;BME280;1571;52.524;14.104;2023-03-01T12:55:55;102212.22;;;6.40;47.96
3122;BME280;1571;52.524;14.104;2023-03-01T12:58:29;102210.75;;;6.66;47.90
3122;BME280;1571;52.524;14.104;2023-03-01T13:01:21;102204.22;;;6.43;47.01
3122;BME280;1571;52.524;14.104;2023-03-01T13:04:15;102209.25;;;6.56;46.68
3122;BME280;1571;52.524;14.104;2023-03-01T13:06:53;102192.19;;;6.30;45.49
3122;BME280;1571;52.524;14.104;2023-03-01T13:09:29;102212.66;;;6.19;45.68
3122;BME280;1571;52.524;14.104;2023-03-01T13:11:58;102210.28;;;6.05;45.92
3122;BME280;1571;52.524;14.104;2023-03-01T13:14:45;102204.41;;;6.34;43.92
3122;BME280;1571;52.524;14.104;2023-03-01T13:17:33;102190.13;;;6.44;42.15
3122;BME280;1571;52.524;14.104;2023-03-01T13:20:16;102185.94;;;6.34;43.17
3122;BME280;1571;52.524;14.104;2023-03-01T13:22:46;102193.94;;;6.31;42.62
3122;BME280;1571;52.524;14.104;2023-03-01T13:25:20;102177.00;;;6.41;42.41
3122;BME280;1571;52.524;14.104;2023-03-01T13:28:36;102179.59;;;6.44;42.92
3122;BME280;1571;52.524;14.104;2023-03-01T13:31:09;102168.88;;;6.51;42.38
3122;BME280;1571;52.524;14.104;2023-03-01T13:33:42;102158.06;;;6.63;41.94
3122;BME280;1571;52.524;14.104;2023-03-01T13:36:45;102167.78;;;6.61;42.53
3122;BME280;1571;52.524;14.104;2023-03-01T13:39:29;102165.59;;;6.39;42.67